Time;durP1;ratioP1;P1;durP2;ratioP2;P2;SDS_P1;SDS_P2;PMS_P1;PMS_P2;Temp;Humidity;BMP_temperature;BMP_pressure;BME280_temperature;BME280_humidity;BME280_pressure;Samples;Min_cycle;Max_cycle;Signal;HPM_P1;HPM_P2
2023/01/16 00:00:12;;;;;;;31.73;14.00;;;4.10;99.90;;;;;;4956962;28;20046;-80
2023/01/16 00:02:37;;;;;;;32.75;14.02;;;4.20;99.90;;;;;;4974442;28;20043;-79
2023/01/16 00:05:03;;;;;;;31.55;12.88;;;4.10;99.90;;;;;;4957284;28;20489;-80
2023/01/16 00:11:25;;;;;;;28.67;12.23;;;4.10;99.90;;;;;;5318563;23;20050;-80
2023/01/16 00:37:59;;;;;;;22.90;9.75;;;4.20;99.90;;;;;;5604212;23;20075;-80
2023/01/16 00:41:11;;;;;;;24.60;10.25;;;4.10;99.90;;;;;;4951189;28;20411;-80
2023/01/16 00:52:26;;;;;;;25.35;9.75;;;4.40;99.90;;;;;;5230530;23;20082;-80
2023/01/16 00:55:26;;;;;;;21.77;8.77;;;4.40;99.90;;;;;;4960064;28;20050;-80
2023/01/16 01:04:29;;;;;;;17.83;7.55;;;4.40;99.90;;;;;;5117672;23;20514;-80
2023/01/16 01:07:32;;;;;;;21.45;8.00;;;4.40;99.90;;;;;;5142145;23;20066;-80
2023/01/16 01:10:39;;;;;;;18.85;8.05;;;4.40;99.90;;;;;;4982959;23;20806;-81
2023/01/16 01:13:43;;;;;;;19.90;8.50;;;4.40;99.90;;;;;;4976773;28;20086;-80
2023/01/16 01:16:10;;;;;;;17.25;7.22;;;4.40;99.90;;;;;;4976417;28;20108;-80
2023/01/16 01:18:45;;;;;;;18.83;8.57;;;4.30;99.90;;;;;;4959684;28;20451;-80
2023/01/16 01:24:51;;;;;;;25.73;8.90;;;4.30;99.90;;;;;;4955305;29;20099;-80
2023/01/16 01:34:33;;;;;;;26.50;10.25;;;4.40;99.90;;;;;;5173397;23;20043;-80
2023/01/16 01:37:35;;;;;;;23.33;9.88;;;4.30;99.90;;;;;;4959116;28;20518;-81
2023/01/16 01:40:02;;;;;;;25.08;10.60;;;4.20;99.90;;;;;;4958859;28;20591;-80
2023/01/16 01:42:42;;;;;;;29.92;10.80;;;4.20;99.90;;;;;;4976094;28;20545;-80
2023/01/16 01:45:33;;;;;;;24.52;9.88;;;4.10;99.90;;;;;;4973296;28;20066;-79
2023/01/16 01:52:12;;;;;;;27.35;11.07;;;4.10;99.90;;;;;;4928472;23;20053;-79
2023/01/16 01:55:22;;;;;;;29.65;10.65;;;4.20;99.90;;;;;;4957965;23;20055;-79
2023/01/16 02:04:10;;;;;;;26.42;10.95;;;4.10;99.90;;;;;;5196370;23;20102;-80
2023/01/16 02:14:31;;;;;;;30.65;10.65;;;4.10;99.90;;;;;;4957589;28;20046;-80
2023/01/16 02:30:36;;;;;;;29.48;9.70;;;3.90;99.90;;;;;;4953316;28;20105;-80
2023/01/16 02:33:05;;;;;;;26.77;10.90;;;4.00;99.90;;;;;;4974157;28;20058;-80
2023/01/16 02:35:51;;;;;;;29.38;10.70;;;3.90;99.90;;;;;;4975181;28;20070;-80
2023/01/16 02:38:21;;;;;;;23.40;9.70;;;3.90;99.90;;;;;;4975433;28;20086;-80
2023/01/16 02:41:11;;;;;;;22.40;9.30;;;3.80;99.90;;;;;;4975413;28;20104;-80
2023/01/16 02:43:50;;;;;;;27.30;10.15;;;3.80;99.90;;;;;;4957862;28;20050;-79
2023/01/16 02:46:40;;;;;;;26.23;9.73;;;3.80;99.90;;;;;;4957754;28;20130;-79
2023/01/16 02:49:22;;;;;;;27.65;9.77;;;3.70;99.90;;;;;;4975031;28;20047;-80
2023/01/16 02:52:24;;;;;;;24.58;9.82;;;3.60;99.90;;;;;;4990940;23;20141;-80
2023/01/16 02:55:27;;;;;;;27.13;8.95;;;3.60;99.90;;;;;;5413240;23;20072;-79
2023/01/16 02:58:18;;;;;;;23.75;9.35;;;3.50;99.90;;;;;;4957643;28;20082;-80
2023/01/16 03:01:25;;;;;;;21.80;8.45;;;3.50;99.90;;;;;;4974854;28;20058;-80
2023/01/16 03:08:13;;;;;;;20.65;7.50;;;3.60;99.90;;;;;;4974531;28;20049;-80
2023/01/16 03:11:22;;;;;;;22.95;7.85;;;3.50;99.90;;;;;;4943794;28;20047;-80
2023/01/16 03:14:15;;;;;;;29.55;9.30;;;3.40;99.90;;;;;;4974695;28;20563;-80
2023/01/16 03:17:37;;;;;;;24.58;8.93;;;3.40;99.90;;;;;;4974709;28;20046;-80
2023/01/16 03:22:45;;;;;;;20.10;7.70;;;3.50;99.90;;;;;;5075701;23;20054;-80
2023/01/16 03:29:38;;;;;;;21.50;8.52;;;3.70;99.90;;;;;;4974476;28;20108;-80
2023/01/16 03:32:27;;;;;;;27.27;8.65;;;3.70;99.90;;;;;;4957138;28;20055;-80
2023/01/16 03:37:26;;;;;;;19.33;8.25;;;3.80;99.90;;;;;;5194009;23;20042;-80
2023/01/16 03:40:05;;;;;;;24.00;9.93;;;3.80;99.90;;;;;;4957368;28;20057;-80
2023/01/16 03:42:37;;;;;;;25.00;8.25;;;3.80;99.90;;;;;;4974211;28;20053;-80
2023/01/16 03:45:25;;;;;;;23.95;10.45;;;3.80;99.90;;;;;;4977170;28;20047;-80
2023/01/16 03:51:25;;;;;;;28.85;10.60;;;3.90;99.90;;;;;;4961130;28;20062;-80
2023/01/16 04:09:01;;;;;;;27.08;11.00;;;4.00;99.90;;;;;;4977925;28;20057;-80
2023/01/16 04:11:53;;;;;;;26.17;10.15;;;3.90;99.90;;;;;;4977673;28;20085;-80
2023/01/16 04:14:31;;;;;;;26.75;11.25;;;3.90;99.90;;;;;;4977851;28;20042;-80
2023/01/16 04:19:36;;;;;;;31.23;10.48;;;3.90;99.90;;;;;;5140960;23;20055;-80
2023/01/16 04:22:39;;;;;;;30.08;11.75;;;4.00;99.90;;;;;;4974740;28;20117;-80
2023/01/16 04:25:26;;;;;;;27.67;9.95;;;3.90;99.90;;;;;;5278407;23;20093;-80
2023/01/16 04:31:00;;;;;;;24.20;9.98;;;4.00;99.90;;;;;;5107878;23;20051;-80
2023/01/16 04:34:18;;;;;;;28.00;11.98;;;4.00;99.90;;;;;;4977826;28;20491;-80
2023/01/16 04:36:44;;;;;;;40.85;11.90;;;4.00;99.90;;;;;;4977374;28;20129;-80
2023/01/16 04:39:44;;;;;;;33.58;11.32;;;4.10;99.90;;;;;;4977582;28;20065;-80
2023/01/16 04:42:40;;;;;;;39.33;14.13;;;4.00;99.90;;;;;;4977379;28;20058;-80
2023/01/16 04:45:50;;;;;;;33.50;12.57;;;4.00;99.90;;;;;;4977059;28;20046;-80
2023/01/16 04:51:46;;;;;;;34.58;13.02;;;4.00;99.90;;;;;;4976966;28;20074;-80
2023/01/16 04:54:19;;;;;;;34.55;11.88;;;4.10;99.90;;;;;;4959844;28;20074;-80
2023/01/16 04:56:45;;;;;;;30.70;11.50;;;4.10;99.90;;;;;;4977062;28;20051;-80
2023/01/16 04:59:15;;;;;;;32.53;12.02;;;4.10;99.90;;;;;;4959857;28;20462;-80
2023/01/16 05:01:41;;;;;;;31.25;12.48;;;4.00;99.90;;;;;;4977150;28;20411;-80
2023/01/16 05:07:33;;;;;;;29.25;11.18;;;4.10;99.90;;;;;;4977056;28;20082;-80
2023/01/16 05:09:58;;;;;;;36.35;13.25;;;4.00;99.90;;;;;;4975994;28;20108;-80
2023/01/16 05:12:24;;;;;;;37.83;13.43;;;4.00;99.90;;;;;;4976264;28;20486;-80
2023/01/16 05:14:55;;;;;;;37.35;13.55;;;4.20;99.90;;;;;;4969016;28;20498;-80
2023/01/16 05:17:26;;;;;;;34.17;14.02;;;4.10;99.90;;;;;;4959640;28;20059;-80
2023/01/16 05:19:52;;;;;;;34.20;12.65;;;4.10;99.90;;;;;;4976202;28;20090;-80
2023/01/16 05:25:22;;;;;;;34.55;13.45;;;4.10;99.90;;;;;;5914198;23;20051;-80
2023/01/16 05:28:20;;;;;;;40.75;13.23;;;4.00;99.90;;;;;;4959418;28;20043;-80
2023/01/16 05:30:49;;;;;;;40.90;14.60;;;4.10;99.90;;;;;;4959050;28;20105;-80
2023/01/16 05:38:37;;;;;;;37.28;12.98;;;4.00;99.90;;;;;;5525591;23;20082;-80
2023/01/16 05:41:03;;;;;;;33.15;13.02;;;4.10;99.90;;;;;;4958978;28;20119;-80
2023/01/16 05:47:00;;;;;;;36.20;12.00;;;4.10;99.90;;;;;;4976306;28;20050;-80
2023/01/16 05:49:50;;;;;;;37.40;12.95;;;4.00;99.90;;;;;;4973420;28;20046;-80
2023/01/16 05:52:28;;;;;;;36.80;12.90;;;4.10;99.90;;;;;;4976429;28;20104;-80
2023/01/16 05:54:55;;;;;;;35.35;13.32;;;4.00;99.90;;;;;;4982732;23;20113;-80
2023/01/16 05:57:25;;;;;;;45.80;13.48;;;4.00;99.90;;;;;;4958639;28;20079;-80
2023/01/16 05:59:53;;;;;;;32.90;13.63;;;4.10;99.90;;;;;;4975706;28;20081;-80
2023/01/16 06:07:32;;;;;;;31.30;13.13;;;4.00;99.90;;;;;;5595897;23;20090;-80
2023/01/16 06:09:58;;;;;;;30.73;13.43;;;4.10;99.90;;;;;;4955173;28;20514;-80
2023/01/16 06:12:33;;;;;;;41.03;13.05;;;4.10;99.90;;;;;;4938927;29;20399;-80
2023/01/16 06:15:30;;;;;;;37.00;13.93;;;4.10;99.90;;;;;;4939603;29;20062;-80
2023/01/16 06:17:56;;;;;;;39.55;15.10;;;4.10;99.90;;;;;;4956150;28;20059;-80
2023/01/16 06:20:24;;;;;;;37.92;15.05;;;4.00;99.90;;;;;;4938946;29;20058;-80
2023/01/16 06:26:09;;;;;;;40.15;14.32;;;4.00;99.90;;;;;;4981747;23;20090;-80
2023/01/16 06:28:55;;;;;;;38.90;14.60;;;4.20;99.90;;;;;;4958268;28;20430;-79
2023/01/16 06:32:05;;;;;;;41.80;13.93;;;4.10;99.90;;;;;;4974997;28;20042;-80
2023/01/16 06:34:44;;;;;;;40.03;14.07;;;4.00;99.90;;;;;;5096131;23;20138;-79
2023/01/16 06:37:28;;;;;;;40.88;13.98;;;4.20;99.90;;;;;;4957938;28;20063;-79
2023/01/16 06:40:03;;;;;;;37.38;12.75;;;4.00;99.90;;;;;;4975183;28;20035;-79
2023/01/16 06:42:38;;;;;;;41.47;15.23;;;4.10;99.90;;;;;;4975037;28;20411;-79
2023/01/16 06:45:25;;;;;;;35.00;14.23;;;4.10;99.90;;;;;;4975374;28;20039;-79
2023/01/16 06:47:54;;;;;;;40.10;15.43;;;4.00;99.90;;;;;;4975126;28;20129;-79
2023/01/16 06:50:23;;;;;;;47.65;14.45;;;4.00;99.90;;;;;;4975452;28;20126;-79
2023/01/16 06:52:48;;;;;;;37.50;14.30;;;4.10;99.90;;;;;;4957758;28;20392;-79
2023/01/16 06:55:14;;;;;;;43.60;14.48;;;4.00;99.90;;;;;;4975031;28;20085;-79
2023/01/16 06:58:01;;;;;;;40.15;13.70;;;4.00;99.90;;;;;;4974288;28;20387;-80
2023/01/16 07:00:37;;;;;;;37.58;13.85;;;4.10;99.90;;;;;;4974858;28;20406;-80
2023/01/16 07:03:03;;;;;;;41.05;13.15;;;3.90;99.90;;;;;;4975020;28;20058;-79
2023/01/16 07:05:31;;;;;;;34.03;13.55;;;3.90;99.90;;;;;;4974979;28;20034;-79
2023/01/16 07:08:00;;;;;;;39.45;13.85;;;3.90;99.90;;;;;;4975025;28;20043;-80
2023/01/16 07:10:26;;;;;;;41.70;12.82;;;3.80;99.90;;;;;;4974510;28;20047;-80
2023/01/16 07:12:52;;;;;;;34.45;12.60;;;4.00;99.90;;;;;;4957323;28;20078;-80
2023/01/16 07:24:44;;;;;;;39.35;14.32;;;3.70;99.90;;;;;;4974705;28;20061;-80
2023/01/16 07:27:11;;;;;;;38.10;14.10;;;3.70;99.90;;;;;;4956512;28;20082;-80
2023/01/16 07:43:54;;;;;;;38.85;12.85;;;3.70;99.90;;;;;;4974019;28;20058;-80
2023/01/16 07:46:38;;;;;;;40.70;13.20;;;3.50;99.90;;;;;;4895678;29;20452;-80
2023/01/16 07:51:41;;;;;;;49.33;16.48;;;3.40;99.90;;;;;;5189293;23;20058;-80
2023/01/16 07:54:11;;;;;;;42.55;16.50;;;3.40;99.90;;;;;;5266867;23;20062;-81
2023/01/16 07:57:13;;;;;;;38.53;13.98;;;3.50;99.90;;;;;;5433035;23;20058;-81
2023/01/16 08:00:11;;;;;;;34.80;13.38;;;3.40;99.90;;;;;;4974332;28;20057;-81
2023/01/16 08:02:37;;;;;;;35.88;11.98;;;3.30;99.90;;;;;;4974269;28;20105;-81
2023/01/16 08:05:04;;;;;;;35.38;12.10;;;3.40;99.90;;;;;;4973927;28;20039;-81
2023/01/16 08:07:29;;;;;;;32.90;12.75;;;3.30;99.90;;;;;;4974408;28;20054;-81
2023/01/16 08:09:55;;;;;;;37.90;13.63;;;3.40;99.90;;;;;;4957114;28;20054;-81
2023/01/16 08:12:21;;;;;;;40.28;13.65;;;3.40;99.90;;;;;;4973951;28;20399;-81
2023/01/16 08:14:55;;;;;;;33.85;11.73;;;3.30;99.90;;;;;;4973712;28;20379;-81
2023/01/16 08:17:21;;;;;;;30.58;12.40;;;3.30;99.90;;;;;;4954522;28;20411;-81
2023/01/16 08:19:47;;;;;;;38.95;12.32;;;3.40;99.90;;;;;;4940442;28;20506;-80
2023/01/16 08:25:27;;;;;;;37.42;12.15;;;3.40;99.90;;;;;;5034982;23;20559;-80
2023/01/16 08:27:53;;;;;;;34.95;12.93;;;3.30;99.90;;;;;;4937762;29;20146;-80
2023/01/16 08:34:25;;;;;;;41.85;11.85;;;3.40;99.90;;;;;;4947085;29;20086;-82
2023/01/16 08:36:50;;;;;;;33.80;12.02;;;3.20;99.90;;;;;;4920817;29;20058;-82
2023/01/16 08:39:50;;;;;;;31.23;11.38;;;3.30;99.90;;;;;;4921905;29;20051;-79
2023/01/16 08:51:21;;;;;;;31.70;10.77;;;3.50;99.90;;;;;;5036531;23;20406;-79
2023/01/16 08:53:47;;;;;;;36.33;9.77;;;3.40;99.90;;;;;;4977012;28;20046;-79
2023/01/16 08:56:13;;;;;;;29.30;10.52;;;3.40;99.90;;;;;;4977084;28;20046;-81
2023/01/16 08:58:59;;;;;;;29.88;9.63;;;3.50;99.90;;;;;;4976900;28;20097;-80
2023/01/16 09:01:25;;;;;;;26.33;10.05;;;3.50;99.90;;;;;;4966256;28;20119;-80
2023/01/16 09:03:51;;;;;;;30.50;10.63;;;3.40;99.90;;;;;;4959318;28;20406;-82
2023/01/16 09:06:16;;;;;;;25.00;8.98;;;3.50;99.90;;;;;;4976720;28;20466;-83
2023/01/16 09:08:42;;;;;;;43.83;10.68;;;3.60;99.90;;;;;;4976747;28;20047;-82
2023/01/16 09:13:59;;;;;;;58.17;26.90;;;3.60;99.90;;;;;;4955748;28;20483;-80
2023/01/16 09:16:25;;;;;;;69.20;34.60;;;3.70;99.90;;;;;;4958801;28;20113;-83
2023/01/16 09:18:53;;;;;;;40.40;19.25;;;3.60;99.90;;;;;;4976561;28;20121;-81
2023/01/16 09:21:19;;;;;;;39.13;15.40;;;3.60;99.90;;;;;;4976215;28;20162;-80
2023/01/16 09:32:07;;;;;;;27.35;10.43;;;3.70;99.90;;;;;;4972435;28;20078;-85
2023/01/16 09:35:04;;;;;;;;;;;3.60;99.90;;;;;;4939725;29;20134;-84
2023/01/16 09:37:30;;;;;;;30.05;10.68;;;3.80;99.90;;;;;;5028044;23;19933;-82
2023/01/16 09:39:56;;;;;;;35.30;11.40;;;3.80;99.90;;;;;;4975537;28;20047;-83
2023/01/16 09:45:30;;;;;;;30.85;11.02;;;3.80;99.90;;;;;;4975836;28;20392;-82
2023/01/16 09:48:10;;;;;;;31.17;11.30;;;3.70;99.90;;;;;;4975917;28;20182;-83
2023/01/16 09:50:46;;;;;;;29.63;11.30;;;3.80;99.90;;;;;;4976061;28;20062;-84
2023/01/16 09:59:05;;;;;;;30.70;12.93;;;3.80;99.90;;;;;;4975566;28;20495;-84
2023/01/16 10:01:36;;;;;;;29.13;11.02;;;3.70;99.90;;;;;;4975571;28;20047;-84
2023/01/16 10:04:20;;;;;;;46.53;15.00;;;3.70;99.90;;;;;;4975850;28;20043;-83
2023/01/16 10:07:06;;;;;;;30.88;11.52;;;3.80;99.90;;;;;;4958052;28;20482;-84
2023/01/16 10:10:02;;;;;;;41.60;14.88;;;3.90;99.90;;;;;;4958379;28;20069;-84
2023/01/16 10:13:00;;;;;;;31.08;11.63;;;3.80;99.90;;;;;;5531069;23;20103;-83
2023/01/16 10:15:38;;;;;;;40.63;14.30;;;4.00;99.90;;;;;;4957902;28;20055;-83
2023/01/16 10:21:29;;;;;;;36.38;12.07;;;4.00;99.90;;;;;;4989707;23;20442;-83
2023/01/16 10:24:08;;;;;;;26.50;11.10;;;4.00;99.90;;;;;;4949325;29;20098;-83
2023/01/16 10:26:53;;;;;;;39.03;11.07;;;3.90;99.90;;;;;;4941335;28;20560;-84
2023/01/16 10:29:30;;;;;;;31.10;10.85;;;4.00;99.90;;;;;;4956680;28;20047;-84
2023/01/16 10:32:08;;;;;;;37.85;11.32;;;3.90;99.90;;;;;;4957958;28;20177;-84
2023/01/16 10:34:40;;;;;;;39.28;13.35;;;3.90;99.90;;;;;;4957713;28;20399;-84
2023/01/16 10:37:06;;;;;;;28.15;10.80;;;3.90;99.90;;;;;;4957583;28;20050;-83
2023/01/16 10:50:37;;;;;;;25.90;8.63;;;4.00;99.90;;;;;;4938087;29;20106;-83
2023/01/16 10:53:05;;;;;;;31.70;11.25;;;4.10;99.90;;;;;;4955034;28;20050;-83
2023/01/16 10:55:33;;;;;;;25.35;10.13;;;4.00;99.90;;;;;;4955228;29;20507;-83
2023/01/16 10:58:04;;;;;;;23.45;8.88;;;4.10;99.90;;;;;;4937931;29;20089;-83
2023/01/16 11:00:35;;;;;;;22.55;9.80;;;4.10;99.90;;;;;;4954524;29;20495;-83
2023/01/16 11:03:08;;;;;;;25.60;9.35;;;4.10;99.90;;;;;;4938008;29;20523;-83
2023/01/16 11:05:37;;;;;;;25.70;10.23;;;4.00;99.90;;;;;;4938565;29;20130;-84
2023/01/16 11:08:11;;;;;;;23.08;8.50;;;4.10;99.90;;;;;;4955236;29;20466;-84
2023/01/16 11:19:27;;;;;;;20.15;9.10;;;4.10;99.90;;;;;;4957296;28;20086;-83
2023/01/16 11:21:58;;;;;;;25.63;9.95;;;4.10;99.90;;;;;;4957047;28;20097;-84
2023/01/16 11:25:05;;;;;;;23.25;8.27;;;4.10;99.90;;;;;;4957237;28;20051;-83
2023/01/16 11:27:51;;;;;;;19.08;7.10;;;4.10;99.90;;;;;;4957096;28;20494;-84
2023/01/16 11:30:20;;;;;;;16.13;7.43;;;4.00;99.90;;;;;;4957145;28;20538;-84
2023/01/16 11:32:54;;;;;;;15.18;6.40;;;4.00;99.90;;;;;;4968244;28;20076;-83
2023/01/16 11:46:19;;;;;;;17.77;7.00;;;4.00;99.90;;;;;;4973707;28;20051;-81
2023/01/16 11:48:46;;;;;;;13.80;5.50;;;3.80;99.90;;;;;;4956790;28;20097;-81
2023/01/16 11:51:42;;;;;;;10.93;4.85;;;4.00;99.90;;;;;;4956803;28;20126;-81
2023/01/16 11:54:42;;;;;;;11.30;4.82;;;3.90;99.90;;;;;;4973914;28;20054;-81
2023/01/16 12:00:24;;;;;;;7.72;3.55;;;3.70;99.90;;;;;;4956416;28;20053;-81
2023/01/16 12:03:28;;;;;;;8.52;4.47;;;3.70;99.90;;;;;;4956793;28;20158;-80
2023/01/16 12:06:23;;;;;;;11.00;4.43;;;3.60;99.90;;;;;;4975333;28;20079;-81
2023/01/16 12:09:23;;;;;;;14.80;5.03;;;3.60;99.90;;;;;;4955392;29;20063;-81
2023/01/16 12:14:59;;;;;;;8.93;3.63;;;3.60;99.90;;;;;;4940629;29;20058;-81
2023/01/16 12:17:34;;;;;;;12.00;4.88;;;3.70;99.90;;;;;;4941321;29;20137;-80
2023/01/16 12:20:18;;;;;;;7.70;3.90;;;3.50;99.90;;;;;;5127115;23;20061;-81
2023/01/16 12:23:06;;;;;;;14.15;6.47;;;3.50;99.90;;;;;;4960021;28;20462;-80
2023/01/16 12:25:35;;;;;;;6.30;3.58;;;3.40;99.90;;;;;;4959998;28;20073;-80
2023/01/16 12:28:30;;;;;;;8.55;4.30;;;3.30;99.90;;;;;;4977612;28;20058;-81
2023/01/16 12:31:21;;;;;;;7.13;3.88;;;3.30;99.90;;;;;;4959922;28;20939;-81
2023/01/16 12:33:53;;;;;;;9.13;3.90;;;3.30;99.90;;;;;;4977113;28;20120;-81
2023/01/16 12:36:49;;;;;;;9.93;4.45;;;3.40;99.90;;;;;;4977341;28;20058;-81
2023/01/16 12:39:52;;;;;;;14.50;6.53;;;3.40;99.90;;;;;;4977345;28;20078;-78
2023/01/16 12:45:55;;;;;;;16.80;7.68;;;3.40;99.90;;;;;;4959698;28;20137;-81
2023/01/16 12:48:31;;;;;;;11.60;6.03;;;3.40;99.90;;;;;;4959797;28;20054;-81
2023/01/16 12:51:21;;;;;;;18.05;9.30;;;3.40;99.90;;;;;;4977024;28;20479;-78
2023/01/16 12:54:10;;;;;;;8.93;4.10;;;3.50;99.90;;;;;;4976885;28;20113;-79
2023/01/16 12:57:01;;;;;;;16.63;7.75;;;3.40;99.90;;;;;;4976686;28;20106;-79
2023/01/16 12:59:42;;;;;;;10.05;3.75;;;3.50;99.90;;;;;;4973914;28;20042;-79
2023/01/16 13:02:55;;;;;;;16.55;6.07;;;3.60;99.90;;;;;;4958526;28;20418;-79
2023/01/16 13:05:31;;;;;;;8.82;4.05;;;3.50;99.90;;;;;;4915472;28;20073;-78
2023/01/16 13:08:08;;;;;;;11.80;4.50;;;3.60;99.90;;;;;;4976632;28;20399;-78
2023/01/16 13:13:36;;;;;;;7.38;3.53;;;3.50;99.90;;;;;;4959089;28;20116;-82
2023/01/16 13:16:10;;;;;;;20.92;9.57;;;3.50;99.90;;;;;;4959017;28;20125;-81
2023/01/16 13:18:40;;;;;;;16.45;6.38;;;3.50;99.90;;;;;;4976601;28;20054;-81
2023/01/16 13:21:12;;;;;;;29.35;12.68;;;3.60;99.90;;;;;;4975923;28;20066;-81
2023/01/16 13:23:53;;;;;;;16.60;8.57;;;3.60;99.90;;;;;;4958730;28;20517;-81
2023/01/16 13:26:21;;;;;;;17.65;6.47;;;3.50;99.90;;;;;;4959338;28;20055;-81
2023/01/16 13:29:08;;;;;;;15.25;7.60;;;3.60;99.90;;;;;;4958979;28;20059;-82
2023/01/16 13:31:47;;;;;;;11.00;5.47;;;3.70;99.90;;;;;;5333953;23;20052;-81
2023/01/16 13:34:24;;;;;;;12.60;6.78;;;3.70;99.90;;;;;;4918715;29;20044;-81
2023/01/16 13:37:20;;;;;;;10.60;5.35;;;3.70;99.90;;;;;;4918937;29;20040;-81
2023/01/16 13:40:05;;;;;;;16.55;7.57;;;3.60;99.90;;;;;;4918588;29;20055;-82
2023/01/16 13:42:32;;;;;;;11.07;5.60;;;3.60;99.90;;;;;;4918672;29;20040;-82
2023/01/16 13:47:52;;;;;;;15.67;6.63;;;3.70;99.90;;;;;;4918466;29;20416;-81
2023/01/16 13:50:28;;;;;;;11.70;4.68;;;3.60;99.90;;;;;;4918179;29;20444;-82
2023/01/16 13:53:01;;;;;;;7.57;4.18;;;3.70;99.90;;;;;;4916588;29;20067;-82
2023/01/16 13:55:39;;;;;;;8.55;4.68;;;3.80;99.90;;;;;;4915885;29;20044;-81
2023/01/16 13:58:14;;;;;;;11.07;5.50;;;3.60;99.90;;;;;;4915652;29;20397;-81
2023/01/16 14:00:41;;;;;;;13.05;5.78;;;3.70;99.90;;;;;;4916916;29;20055;-82
2023/01/16 14:03:47;;;;;;;11.85;4.60;;;3.60;99.90;;;;;;4918180;29;20047;-82
2023/01/16 14:06:24;;;;;;;12.65;5.70;;;3.80;99.90;;;;;;4917724;29;20064;-81
2023/01/16 14:09:07;;;;;;;8.68;5.15;;;3.80;99.90;;;;;;4918109;29;20051;-81
2023/01/16 14:11:57;;;;;;;14.50;5.30;;;3.70;99.90;;;;;;4917299;29;20059;-81
2023/01/16 14:17:52;;;;;;;64.78;17.98;;;3.80;99.90;;;;;;4916828;29;20051;-81
2023/01/16 14:20:43;;;;;;;26.90;9.65;;;4.00;99.90;;;;;;4916993;29;20595;-80
2023/01/16 14:26:16;;;;;;;31.63;13.25;;;3.90;99.90;;;;;;4917776;29;20083;-80
2023/01/16 14:28:46;;;;;;;;;;;3.90;99.90;;;;;;4917728;29;20051;-81
2023/01/16 14:31:26;;;;;;;28.70;9.90;;;3.90;99.90;;;;;;4916546;29;20021;-81
2023/01/16 14:33:56;;;;;;;24.63;9.88;;;3.90;99.90;;;;;;4917795;29;20079;-82
2023/01/16 14:36:44;;;;;;;29.38;10.57;;;4.00;99.90;;;;;;4900882;29;20511;-81
2023/01/16 14:39:33;;;;;;;16.27;7.47;;;4.00;99.90;;;;;;4916552;29;20059;-81
2023/01/16 15:04:06;;;;;;;20.40;8.85;;;4.10;99.90;;;;;;5140489;23;20074;-83
2023/01/16 15:07:09;;;;;;;18.55;7.35;;;3.90;99.90;;;;;;4957212;28;20562;-84
2023/01/16 15:09:50;;;;;;;18.42;8.15;;;4.10;99.90;;;;;;4957500;28;20051;-83
2023/01/16 15:13:11;;;;;;;15.93;7.50;;;4.20;99.90;;;;;;4974326;28;20046;-83
2023/01/16 15:15:37;;;;;;;16.17;7.55;;;4.10;99.90;;;;;;5119975;23;20054;-83
2023/01/16 15:29:26;;;;;;;24.67;9.35;;;4.20;99.90;;;;;;5067361;23;20039;-82
2023/01/16 15:32:03;;;;;;;18.13;8.07;;;4.10;99.90;;;;;;4938051;29;20073;-82
2023/01/16 15:34:32;;;;;;;27.63;11.48;;;4.00;99.90;;;;;;4955384;29;20039;-82
2023/01/16 15:37:04;;;;;;;20.95;10.35;;;4.20;99.90;;;;;;4938180;28;20051;-82
2023/01/16 15:39:36;;;;;;;24.50;9.83;;;4.00;99.90;;;;;;4957056;28;20054;-81
2023/01/16 15:50:47;;;;;;;21.60;10.15;;;4.10;99.90;;;;;;4920013;29;20051;-82
2023/01/16 15:53:13;;;;;;;23.05;9.48;;;4.10;99.90;;;;;;4935802;29;20408;-82
2023/01/16 15:55:46;;;;;;;22.58;10.98;;;4.20;99.90;;;;;;4920997;29;20544;-82
2023/01/16 15:58:19;;;;;;;26.75;10.98;;;4.20;99.90;;;;;;4921316;29;20552;-82
2023/01/16 16:04:23;;;;;;;49.30;19.60;;;4.10;99.90;;;;;;4921341;29;20083;-79
2023/01/16 16:06:55;;;;;;;37.75;15.82;;;4.10;99.90;;;;;;4903969;29;20048;-80
2023/01/16 16:09:54;;;;;;;25.85;11.95;;;4.20;99.90;;;;;;4921007;29;20091;-82
2023/01/16 16:12:28;;;;;;;31.00;11.95;;;4.20;99.90;;;;;;4920588;29;20048;-82
2023/01/16 16:18:28;;;;;;;25.10;11.02;;;4.20;99.90;;;;;;4934821;29;20059;-83
2023/01/16 16:21:06;;;;;;;38.85;15.75;;;4.30;99.90;;;;;;4903019;29;20076;-82
2023/01/16 16:23:33;;;;;;;55.58;19.00;;;4.30;99.90;;;;;;4920410;29;20083;-82
2023/01/16 16:26:01;;;;;;;25.77;13.70;;;4.30;99.90;;;;;;4920493;29;20527;-82
2023/01/16 16:29:07;;;;;;;33.50;18.60;;;4.30;99.90;;;;;;5020652;23;20063;-81
2023/01/16 16:31:49;;;;;;;23.20;11.30;;;4.30;99.90;;;;;;4921857;29;20044;-82
2023/01/16 16:34:23;;;;;;;24.08;11.48;;;4.20;99.90;;;;;;4939465;29;20073;-82
2023/01/16 16:36:56;;;;;;;26.17;15.05;;;4.10;99.90;;;;;;4939424;29;20063;-82
2023/01/16 16:39:25;;;;;;;25.27;11.98;;;4.30;99.90;;;;;;4922234;29;20126;-82
2023/01/16 16:44:41;;;;;;;22.05;12.05;;;4.30;99.90;;;;;;4939010;29;20044;-82
2023/01/16 16:47:16;;;;;;;21.60;11.02;;;4.30;99.90;;;;;;4939026;29;20054;-82
2023/01/16 16:49:44;;;;;;;31.20;16.75;;;4.10;99.90;;;;;;4939194;29;20043;-82
2023/01/16 16:52:31;;;;;;;24.30;11.20;;;4.10;99.90;;;;;;4920093;29;20067;-82
2023/01/16 16:54:59;;;;;;;24.05;12.48;;;4.20;99.90;;;;;;4938573;29;20056;-82
2023/01/16 16:57:40;;;;;;;46.75;19.77;;;4.10;99.90;;;;;;4938679;29;20062;-81
2023/01/16 17:00:13;;;;;;;33.03;14.93;;;4.30;99.90;;;;;;4938710;29;20510;-81
2023/01/16 17:02:39;;;;;;;22.02;10.27;;;4.40;99.90;;;;;;4939065;29;20087;-82
2023/01/16 17:05:11;;;;;;;21.45;11.05;;;4.20;99.90;;;;;;4938635;29;20078;-82
2023/01/16 17:07:38;;;;;;;20.48;10.40;;;4.30;99.90;;;;;;4938587;29;20131;-82
2023/01/16 17:10:11;;;;;;;20.23;9.60;;;4.20;99.90;;;;;;4938538;29;20039;-82
2023/01/16 17:12:39;;;;;;;20.00;9.57;;;4.20;99.90;;;;;;4938627;29;20086;-82
2023/01/16 17:15:05;;;;;;;20.13;8.85;;;4.30;99.90;;;;;;4938410;29;20551;-82
2023/01/16 17:17:35;;;;;;;22.52;10.18;;;4.20;99.90;;;;;;4938107;29;20216;-82
2023/01/16 17:20:01;;;;;;;20.67;8.95;;;4.30;99.90;;;;;;4938266;29;20080;-82
2023/01/16 17:22:27;;;;;;;23.23;9.55;;;4.20;99.90;;;;;;4938389;29;20087;-82
2023/01/16 17:24:54;;;;;;;20.70;9.50;;;4.10;99.90;;;;;;4938459;29;20079;-82
2023/01/16 17:27:20;;;;;;;22.83;10.57;;;4.30;99.90;;;;;;4921299;29;20098;-82
2023/01/16 17:29:46;;;;;;;22.83;10.60;;;4.40;99.90;;;;;;4938042;29;20060;-82
2023/01/16 17:32:38;;;;;;;27.15;11.23;;;4.30;99.90;;;;;;4938181;29;20105;-82
2023/01/16 17:35:04;;;;;;;21.20;11.05;;;4.30;99.90;;;;;;4936365;29;20051;-81
2023/01/16 17:37:33;;;;;;;28.23;12.57;;;4.20;99.90;;;;;;4937987;29;20128;-81
2023/01/16 17:39:58;;;;;;;23.58;10.50;;;4.30;99.90;;;;;;4938000;29;20126;-81
2023/01/16 17:48:15;;;;;;;28.50;11.70;;;4.40;99.90;;;;;;4937850;29;20500;-81
2023/01/16 17:50:41;;;;;;;36.42;13.02;;;4.30;99.90;;;;;;4920714;29;20078;-81
2023/01/16 17:53:11;;;;;;;30.20;12.15;;;4.20;99.90;;;;;;4920846;29;20164;-81
2023/01/16 17:55:51;;;;;;;22.77;9.05;;;4.40;99.90;;;;;;4920690;29;20043;-81
2023/01/16 17:59:27;;;;;;;21.52;8.15;;;4.30;99.90;;;;;;4937848;29;20106;-81
2023/01/16 18:01:30;;;;;;;17.50;6.53;;;4.30;99.90;;;;;;4933412;29;20066;-81
2023/01/16 18:04:07;;;;;;;14.95;5.72;;;4.30;99.90;;;;;;4936815;29;20058;-81
2023/01/16 18:06:34;;;;;;;16.83;6.25;;;4.30;99.90;;;;;;4937685;29;20039;-81
2023/01/16 18:09:06;;;;;;;20.80;6.70;;;4.10;99.90;;;;;;4937620;29;20065;-81
2023/01/16 18:19:46;;;;;;;11.65;4.55;;;4.00;99.90;;;;;;4937562;29;20051;-81
2023/01/16 18:22:12;;;;;;;11.50;4.68;;;4.00;99.90;;;;;;4937233;29;20103;-81
2023/01/16 18:24:43;;;;;;;11.10;4.72;;;3.90;99.90;;;;;;4920515;29;20042;-81
2023/01/16 18:27:14;;;;;;;10.27;4.05;;;4.00;99.90;;;;;;4920482;29;20500;-81
2023/01/16 18:29:41;;;;;;;10.15;3.40;;;3.90;99.90;;;;;;4937040;29;20135;-81
2023/01/16 18:32:19;;;;;;;10.15;3.67;;;4.00;99.90;;;;;;4937068;29;20047;-81
2023/01/16 18:34:56;;;;;;;6.38;2.83;;;3.80;99.90;;;;;;4937188;29;20048;-81
2023/01/16 18:37:23;;;;;;;9.63;3.20;;;3.70;99.90;;;;;;4919991;29;20131;-81
2023/01/16 19:02:12;;;;;;;8.50;2.47;;;3.60;99.90;;;;;;4936625;29;20052;-81
2023/01/16 19:04:38;;;;;;;5.78;2.60;;;3.50;99.90;;;;;;4919542;29;20048;-81
2023/01/16 19:07:24;;;;;;;5.93;2.20;;;3.50;99.90;;;;;;4919559;29;20052;-81
2023/01/16 19:09:53;;;;;;;7.88;2.50;;;3.30;99.90;;;;;;4936634;29;20044;-81
2023/01/16 19:12:21;;;;;;;6.82;2.28;;;3.50;99.90;;;;;;4936585;29;20084;-81
2023/01/16 19:14:48;;;;;;;4.38;1.70;;;3.50;99.90;;;;;;4936259;29;20110;-81
2023/01/16 19:17:14;;;;;;;3.33;1.38;;;3.50;99.90;;;;;;4936490;29;20048;-81
2023/01/16 19:19:39;;;;;;;4.00;1.27;;;3.50;99.90;;;;;;4936505;29;20050;-81
2023/01/16 19:22:11;;;;;;;4.07;1.50;;;3.30;99.90;;;;;;4919332;29;20325;-81
2023/01/16 19:24:36;;;;;;;2.88;1.17;;;3.50;99.90;;;;;;4936472;29;20392;-81
2023/01/16 19:27:03;;;;;;;6.90;1.67;;;3.30;99.90;;;;;;4936837;29;20502;-81
2023/01/16 19:29:30;;;;;;;5.18;1.70;;;3.30;99.90;;;;;;4936075;29;20454;-81